EGAC/BHD METAR and TAF weather

Enter ICAO airport designator
Station Type Date Time Source
EGAC METAR 2021/09/16 20:50 UTC NOAA

EGAC 162050Z AUTO 18007KT 9999 SCT040/// 16/15 Q1011


Station Type Date Time Source
EGAC Decoded METAR 2021/09/16 20:50 UTC NOAA

Belfast / Harbour, United Kingdom (EGAC) 54-36N 005-53W 0M
Sep 16, 2021 - 04:50 PM EDT / 2021.09.16 2050 UTC
Wind: from the S (180 degrees) at 8 MPH (7 KT):0
Visibility: greater than 7 mile(s):0
Sky conditions: partly cloudy
Temperature: 60 F (16 C)
Dew Point: 59 F (15 C)
Relative Humidity: 93%
Pressure (altimeter): 29.85 in. Hg (1011 hPa)
ob: EGAC 162050Z AUTO 18007KT 9999 SCT040/// 16/15 Q1011
cycle: 21

Station Type Date Time Source
EGAC TAF UTC NOAA

Error!

Example: see airport list